sensor_id;sensor_type;location;lat;lon;timestamp;temperature;humidity
70246;SHT30;57637;49.272;8.590;2024-02-04T00:01:24;8.20;91.20
70246;SHT30;57637;49.272;8.590;2024-02-04T00:03:49;8.20;91.28
70246;SHT30;57637;49.272;8.590;2024-02-04T00:06:14;8.15;91.33
70246;SHT30;57637;49.272;8.590;2024-02-04T00:08:40;8.15;91.38
70246;SHT30;57637;49.272;8.590;2024-02-04T00:11:05;8.14;91.31
70246;SHT30;57637;49.272;8.590;2024-02-04T00:13:32;8.14;91.32
70246;SHT30;57637;49.272;8.590;2024-02-04T00:15:58;8.09;91.39
70246;SHT30;57637;49.272;8.590;2024-02-04T00:18:24;8.08;91.43
70246;SHT30;57637;49.272;8.590;2024-02-04T00:20:50;8.05;91.43
70246;SHT30;57637;49.272;8.590;2024-02-04T00:23:15;8.05;91.45
70246;SHT30;57637;49.272;8.590;2024-02-04T00:25:40;8.01;91.47
70246;SHT30;57637;49.272;8.590;2024-02-04T00:28:06;8.01;91.61
70246;SHT30;57637;49.272;8.590;2024-02-04T00:30:32;7.97;91.64
70246;SHT30;57637;49.272;8.590;2024-02-04T00:32:57;8.01;91.60
70246;SHT30;57637;49.272;8.590;2024-02-04T00:35:27;8.02;91.60
70246;SHT30;57637;49.272;8.590;2024-02-04T00:37:53;7.99;91.51
70246;SHT30;57637;49.272;8.590;2024-02-04T00:40:18;8.01;91.48
70246;SHT30;57637;49.272;8.590;2024-02-04T00:42:44;8.02;91.41
70246;SHT30;57637;49.272;8.590;2024-02-04T00:45:09;7.99;91.43
70246;SHT30;57637;49.272;8.590;2024-02-04T00:47:34;7.97;91.47
70246;SHT30;57637;49.272;8.590;2024-02-04T00:50:00;7.99;91.49
70246;SHT30;57637;49.272;8.590;2024-02-04T00:52:25;7.95;91.47
70246;SHT30;57637;49.272;8.590;2024-02-04T00:54:50;7.94;91.45
70246;SHT30;57637;49.272;8.590;2024-02-04T00:57:16;7.97;91.47
70246;SHT30;57637;49.272;8.590;2024-02-04T00:59:41;7.93;91.47
70246;SHT30;57637;49.272;8.590;2024-02-04T01:02:06;7.93;91.53
70246;SHT30;57637;49.272;8.590;2024-02-04T01:04:31;7.88;91.41
70246;SHT30;57637;49.272;8.590;2024-02-04T01:06:57;7.90;91.50
70246;SHT30;57637;49.272;8.590;2024-02-04T01:09:22;7.90;91.56
70246;SHT30;57637;49.272;8.590;2024-02-04T01:11:47;7.88;91.50
70246;SHT30;57637;49.272;8.590;2024-02-04T01:14:12;7.87;91.40
70246;SHT30;57637;49.272;8.590;2024-02-04T01:16:38;7.87;91.38
70246;SHT30;57637;49.272;8.590;2024-02-04T01:19:03;7.83;91.47
70246;SHT30;57637;49.272;8.590;2024-02-04T01:21:28;7.84;91.35
70246;SHT30;57637;49.272;8.590;2024-02-04T01:23:54;7.83;91.33
70246;SHT30;57637;49.272;8.590;2024-02-04T01:26:19;7.81;91.27
70246;SHT30;57637;49.272;8.590;2024-02-04T01:28:45;7.81;91.34
70246;SHT30;57637;49.272;8.590;2024-02-04T01:31:10;7.78;91.28
70246;SHT30;57637;49.272;8.590;2024-02-04T01:33:36;7.77;91.22
70246;SHT30;57637;49.272;8.590;2024-02-04T01:36:01;7.80;91.29
70246;SHT30;57637;49.272;8.590;2024-02-04T01:38:26;7.78;91.28
70246;SHT30;57637;49.272;8.590;2024-02-04T01:40:52;7.74;91.28
70246;SHT30;57637;49.272;8.590;2024-02-04T01:43:18;7.75;91.39
70246;SHT30;57637;49.272;8.590;2024-02-04T01:45:46;7.71;91.36
70246;SHT30;57637;49.272;8.590;2024-02-04T01:48:12;7.73;91.36
70246;SHT30;57637;49.272;8.590;2024-02-04T01:50:40;7.69;91.36
70246;SHT30;57637;49.272;8.590;2024-02-04T01:53:06;7.69;91.38
70246;SHT30;57637;49.272;8.590;2024-02-04T01:55:31;7.69;91.37
70246;SHT30;57637;49.272;8.590;2024-02-04T01:57:56;7.69;91.34
70246;SHT30;57637;49.272;8.590;2024-02-04T02:00:22;7.63;91.28
70246;SHT30;57637;49.272;8.590;2024-02-04T02:02:47;7.66;91.27
70246;SHT30;57637;49.272;8.590;2024-02-04T02:05:13;7.64;91.27
70246;SHT30;57637;49.272;8.590;2024-02-04T02:07:40;7.66;91.31
70246;SHT30;57637;49.272;8.590;2024-02-04T02:10:05;7.62;91.25
70246;SHT30;57637;49.272;8.590;2024-02-04T02:12:41;7.62;91.23
70246;SHT30;57637;49.272;8.590;2024-02-04T02:15:20;7.60;91.16
70246;SHT30;57637;49.272;8.590;2024-02-04T02:17:56;7.63;91.14
70246;SHT30;57637;49.272;8.590;2024-02-04T02:20:27;7.60;91.08
70246;SHT30;57637;49.272;8.590;2024-02-04T02:23:08;7.60;91.02
70246;SHT30;57637;49.272;8.590;2024-02-04T02:25:42;7.60;91.00
70246;SHT30;57637;49.272;8.590;2024-02-04T02:28:09;7.59;90.94
70246;SHT30;57637;49.272;8.590;2024-02-04T02:30:34;7.60;90.81
70246;SHT30;57637;49.272;8.590;2024-02-04T02:33:00;7.60;90.73
70246;SHT30;57637;49.272;8.590;2024-02-04T02:35:25;7.57;90.57
70246;SHT30;57637;49.272;8.590;2024-02-04T02:40:38;7.57;90.37
70246;SHT30;57637;49.272;8.590;2024-02-04T02:43:12;7.59;90.31
70246;SHT30;57637;49.272;8.590;2024-02-04T02:45:42;7.60;90.20
70246;SHT30;57637;49.272;8.590;2024-02-04T02:48:08;7.60;90.09
70246;SHT30;57637;49.272;8.590;2024-02-04T02:50:35;7.60;90.01
70246;SHT30;57637;49.272;8.590;2024-02-04T02:53:01;7.60;89.91
70246;SHT30;57637;49.272;8.590;2024-02-04T02:55:26;7.56;89.88
70246;SHT30;57637;49.272;8.590;2024-02-04T02:57:52;7.60;89.87
70246;SHT30;57637;49.272;8.590;2024-02-04T03:00:17;7.57;89.81
70246;SHT30;57637;49.272;8.590;2024-02-04T03:02:42;7.54;89.71
70246;SHT30;57637;49.272;8.590;2024-02-04T03:05:08;7.53;89.67
70246;SHT30;57637;49.272;8.590;2024-02-04T03:07:33;7.52;89.72
70246;SHT30;57637;49.272;8.590;2024-02-04T03:09:58;7.56;89.76
70246;SHT30;57637;49.272;8.590;2024-02-04T03:12:24;7.56;89.80
70246;SHT30;57637;49.272;8.590;2024-02-04T03:14:49;7.53;89.75
70246;SHT30;57637;49.272;8.590;2024-02-04T03:17:14;7.53;89.72
70246;SHT30;57637;49.272;8.590;2024-02-04T03:19:40;7.54;89.76
70246;SHT30;57637;49.272;8.590;2024-02-04T03:22:05;7.54;89.77
70246;SHT30;57637;49.272;8.590;2024-02-04T03:24:34;7.53;89.82
70246;SHT30;57637;49.272;8.590;2024-02-04T03:26:59;7.53;89.82
70246;SHT30;57637;49.272;8.590;2024-02-04T03:29:24;7.53;89.84
70246;SHT30;57637;49.272;8.590;2024-02-04T03:31:49;7.53;89.87
70246;SHT30;57637;49.272;8.590;2024-02-04T03:34:15;7.54;89.99
70246;SHT30;57637;49.272;8.590;2024-02-04T03:36:40;7.53;89.95
70246;SHT30;57637;49.272;8.590;2024-02-04T03:39:05;7.54;90.07
70246;SHT30;57637;49.272;8.590;2024-02-04T03:41:31;7.59;90.04
70246;SHT30;57637;49.272;8.590;2024-02-04T03:43:56;7.56;90.03
70246;SHT30;57637;49.272;8.590;2024-02-04T03:46:21;7.60;90.23
70246;SHT30;57637;49.272;8.590;2024-02-04T03:48:47;7.62;90.19
70246;SHT30;57637;49.272;8.590;2024-02-04T03:51:15;7.64;90.20
70246;SHT30;57637;49.272;8.590;2024-02-04T03:53:44;7.64;90.23
70246;SHT30;57637;49.272;8.590;2024-02-04T03:56:10;7.69;90.28
70246;SHT30;57637;49.272;8.590;2024-02-04T03:58:36;7.67;90.34
70246;SHT30;57637;49.272;8.590;2024-02-04T04:01:01;7.70;90.40
70246;SHT30;57637;49.272;8.590;2024-02-04T04:03:27;7.70;90.48
70246;SHT30;57637;49.272;8.590;2024-02-04T04:05:55;7.77;90.73
70246;SHT30;57637;49.272;8.590;2024-02-04T04:08:20;7.80;90.72
70246;SHT30;57637;49.272;8.590;2024-02-04T04:10:45;7.83;90.82
70246;SHT30;57637;49.272;8.590;2024-02-04T04:13:11;7.84;90.77
70246;SHT30;57637;49.272;8.590;2024-02-04T04:15:37;7.87;90.91
70246;SHT30;57637;49.272;8.590;2024-02-04T04:18:03;7.88;90.91
70246;SHT30;57637;49.272;8.590;2024-02-04T04:20:28;7.88;90.92
70246;SHT30;57637;49.272;8.590;2024-02-04T04:22:54;7.91;90.91
70246;SHT30;57637;49.272;8.590;2024-02-04T04:25:19;7.93;90.96
70246;SHT30;57637;49.272;8.590;2024-02-04T04:27:44;7.94;90.96
70246;SHT30;57637;49.272;8.590;2024-02-04T04:30:10;7.94;90.99
70246;SHT30;57637;49.272;8.590;2024-02-04T04:32:35;7.95;91.03
70246;SHT30;57637;49.272;8.590;2024-02-04T04:35:00;7.94;90.96
70246;SHT30;57637;49.272;8.590;2024-02-04T04:37:26;7.94;90.92
70246;SHT30;57637;49.272;8.590;2024-02-04T04:39:51;7.95;90.92
70246;SHT30;57637;49.272;8.590;2024-02-04T04:42:16;7.97;90.84
70246;SHT30;57637;49.272;8.590;2024-02-04T04:44:42;7.97;90.82
70246;SHT30;57637;49.272;8.590;2024-02-04T04:47:07;7.98;90.77
70246;SHT30;57637;49.272;8.590;2024-02-04T04:49:32;7.98;90.79
70246;SHT30;57637;49.272;8.590;2024-02-04T04:51:58;7.95;90.66
70246;SHT30;57637;49.272;8.590;2024-02-04T04:54:23;7.98;90.64
70246;SHT30;57637;49.272;8.590;2024-02-04T04:56:48;7.99;90.61
70246;SHT30;57637;49.272;8.590;2024-02-04T04:59:14;8.01;90.59
70246;SHT30;57637;49.272;8.590;2024-02-04T05:01:47;7.98;90.53
70246;SHT30;57637;49.272;8.590;2024-02-04T05:04:13;7.97;90.53
70246;SHT30;57637;49.272;8.590;2024-02-04T05:06:39;7.98;90.52
70246;SHT30;57637;49.272;8.590;2024-02-04T05:09:04;7.97;90.59
70246;SHT30;57637;49.272;8.590;2024-02-04T05:11:30;7.97;90.64
70246;SHT30;57637;49.272;8.590;2024-02-04T05:13:55;7.98;90.61
70246;SHT30;57637;49.272;8.590;2024-02-04T05:16:21;7.98;90.62
70246;SHT30;57637;49.272;8.590;2024-02-04T05:18:46;7.95;90.57
70246;SHT30;57637;49.272;8.590;2024-02-04T05:21:11;7.97;90.56
70246;SHT30;57637;49.272;8.590;2024-02-04T05:23:37;7.98;90.58
70246;SHT30;57637;49.272;8.590;2024-02-04T05:26:03;7.94;90.48
70246;SHT30;57637;49.272;8.590;2024-02-04T05:28:29;7.93;90.39
70246;SHT30;57637;49.272;8.590;2024-02-04T05:30:55;7.93;90.42
70246;SHT30;57637;49.272;8.590;2024-02-04T05:33:20;7.91;90.33
70246;SHT30;57637;49.272;8.590;2024-02-04T05:35:45;7.94;90.31
70246;SHT30;57637;49.272;8.590;2024-02-04T05:38:10;7.93;90.30
70246;SHT30;57637;49.272;8.590;2024-02-04T05:40:36;7.90;90.22
70246;SHT30;57637;49.272;8.590;2024-02-04T05:43:01;7.90;90.19
70246;SHT30;57637;49.272;8.590;2024-02-04T05:45:31;7.87;90.07
70246;SHT30;57637;49.272;8.590;2024-02-04T05:47:57;7.88;90.02
70246;SHT30;57637;49.272;8.590;2024-02-04T05:50:22;7.85;89.83
70246;SHT30;57637;49.272;8.590;2024-02-04T05:52:47;7.83;89.84
70246;SHT30;57637;49.272;8.590;2024-02-04T05:55:13;7.83;89.69
70246;SHT30;57637;49.272;8.590;2024-02-04T05:57:39;7.80;89.66
70246;SHT30;57637;49.272;8.590;2024-02-04T06:00:04;7.77;89.73
70246;SHT30;57637;49.272;8.590;2024-02-04T06:02:31;7.81;89.70
70246;SHT30;57637;49.272;8.590;2024-02-04T06:04:56;7.74;89.67
70246;SHT30;57637;49.272;8.590;2024-02-04T06:07:22;7.74;89.63
70246;SHT30;57637;49.272;8.590;2024-02-04T06:09:47;7.75;89.70
70246;SHT30;57637;49.272;8.590;2024-02-04T06:12:12;7.74;89.82
70246;SHT30;57637;49.272;8.590;2024-02-04T06:14:38;7.75;89.77
70246;SHT30;57637;49.272;8.590;2024-02-04T06:17:05;7.74;89.93
70246;SHT30;57637;49.272;8.590;2024-02-04T06:19:33;7.74;89.95
70246;SHT30;57637;49.272;8.590;2024-02-04T06:21:58;7.71;90.02
70246;SHT30;57637;49.272;8.590;2024-02-04T06:24:24;7.73;90.04
70246;SHT30;57637;49.272;8.590;2024-02-04T06:26:49;7.74;90.09
70246;SHT30;57637;49.272;8.590;2024-02-04T06:29:17;7.73;90.16
70246;SHT30;57637;49.272;8.590;2024-02-04T06:31:46;7.70;90.22
70246;SHT30;57637;49.272;8.590;2024-02-04T06:34:11;7.71;90.20
70246;SHT30;57637;49.272;8.590;2024-02-04T06:36:37;7.69;90.15
70246;SHT30;57637;49.272;8.590;2024-02-04T06:39:02;7.70;90.31
70246;SHT30;57637;49.272;8.590;2024-02-04T06:41:27;7.70;90.23
70246;SHT30;57637;49.272;8.590;2024-02-04T06:43:53;7.75;90.25
70246;SHT30;57637;49.272;8.590;2024-02-04T06:46:25;7.77;90.08
70246;SHT30;57637;49.272;8.590;2024-02-04T06:48:51;7.75;90.22
70246;SHT30;57637;49.272;8.590;2024-02-04T06:51:16;7.78;90.08
70246;SHT30;57637;49.272;8.590;2024-02-04T06:53:42;7.87;90.18
70246;SHT30;57637;49.272;8.590;2024-02-04T06:56:07;7.87;90.00
70246;SHT30;57637;49.272;8.590;2024-02-04T06:58:32;7.84;89.88
70246;SHT30;57637;49.272;8.590;2024-02-04T07:00:57;7.94;89.88
70246;SHT30;57637;49.272;8.590;2024-02-04T07:03:23;7.91;89.64
70246;SHT30;57637;49.272;8.590;2024-02-04T07:05:48;7.97;89.85
70246;SHT30;57637;49.272;8.590;2024-02-04T07:08:13;7.98;89.61
70246;SHT30;57637;49.272;8.590;2024-02-04T07:10:39;8.02;89.68
70246;SHT30;57637;49.272;8.590;2024-02-04T07:13:04;8.02;89.59
70246;SHT30;57637;49.272;8.590;2024-02-04T07:15:30;8.06;89.61
70246;SHT30;57637;49.272;8.590;2024-02-04T07:17:55;8.06;89.68
70246;SHT30;57637;49.272;8.590;2024-02-04T07:20:20;8.14;89.68
70246;SHT30;57637;49.272;8.590;2024-02-04T07:22:45;8.14;89.51
70246;SHT30;57637;49.272;8.590;2024-02-04T07:25:11;8.20;89.52
70246;SHT30;57637;49.272;8.590;2024-02-04T07:27:36;8.18;89.19
70246;SHT30;57637;49.272;8.590;2024-02-04T07:30:01;8.12;89.52
70246;SHT30;57637;49.272;8.590;2024-02-04T07:32:28;8.21;89.42
70246;SHT30;57637;49.272;8.590;2024-02-04T07:34:54;8.24;89.25
70246;SHT30;57637;49.272;8.590;2024-02-04T07:37:19;8.16;88.88
70246;SHT30;57637;49.272;8.590;2024-02-04T07:39:44;8.21;89.14
70246;SHT30;57637;49.272;8.590;2024-02-04T07:42:10;8.24;88.90
70246;SHT30;57637;49.272;8.590;2024-02-04T07:44:35;8.25;88.77
70246;SHT30;57637;49.272;8.590;2024-02-04T07:47:00;8.22;88.42
70246;SHT30;57637;49.272;8.590;2024-02-04T07:49:26;8.12;88.43
70246;SHT30;57637;49.272;8.590;2024-02-04T07:51:51;8.05;88.82
70246;SHT30;57637;49.272;8.590;2024-02-04T07:54:16;8.02;88.91
70246;SHT30;57637;49.272;8.590;2024-02-04T07:56:42;7.99;89.13
70246;SHT30;57637;49.272;8.590;2024-02-04T07:59:07;8.01;89.15
70246;SHT30;57637;49.272;8.590;2024-02-04T08:01:33;8.01;89.34
70246;SHT30;57637;49.272;8.590;2024-02-04T08:03:58;8.06;89.39
70246;SHT30;57637;49.272;8.590;2024-02-04T08:06:23;8.08;89.15
70246;SHT30;57637;49.272;8.590;2024-02-04T08:08:48;8.14;89.11
70246;SHT30;57637;49.272;8.590;2024-02-04T08:11:17;8.12;89.06
70246;SHT30;57637;49.272;8.590;2024-02-04T08:13:43;8.21;88.98
70246;SHT30;57637;49.272;8.590;2024-02-04T08:16:09;8.22;88.91
70246;SHT30;57637;49.272;8.590;2024-02-04T08:18:35;8.24;88.72
70246;SHT30;57637;49.272;8.590;2024-02-04T08:21:00;8.25;88.63
70246;SHT30;57637;49.272;8.590;2024-02-04T08:23:25;8.24;88.66
70246;SHT30;57637;49.272;8.590;2024-02-04T08:25:50;8.28;88.64
70246;SHT30;57637;49.272;8.590;2024-02-04T08:28:16;8.32;88.53
70246;SHT30;57637;49.272;8.590;2024-02-04T08:30:41;8.34;88.40
70246;SHT30;57637;49.272;8.590;2024-02-04T08:33:07;8.35;88.36
70246;SHT30;57637;49.272;8.590;2024-02-04T08:35:33;8.35;88.23
70246;SHT30;57637;49.272;8.590;2024-02-04T08:37:58;8.35;88.22
70246;SHT30;57637;49.272;8.590;2024-02-04T08:40:24;8.35;88.11
70246;SHT30;57637;49.272;8.590;2024-02-04T08:42:49;8.29;87.86
70246;SHT30;57637;49.272;8.590;2024-02-04T08:45:14;8.29;87.65
70246;SHT30;57637;49.272;8.590;2024-02-04T08:47:40;8.25;87.82
70246;SHT30;57637;49.272;8.590;2024-02-04T08:50:05;8.25;87.84
70246;SHT30;57637;49.272;8.590;2024-02-04T08:52:31;8.21;87.62
70246;SHT30;57637;49.272;8.590;2024-02-04T08:54:56;8.22;87.82
70246;SHT30;57637;49.272;8.590;2024-02-04T08:57:23;8.25;87.80
70246;SHT30;57637;49.272;8.590;2024-02-04T08:59:49;8.22;87.64
70246;SHT30;57637;49.272;8.590;2024-02-04T09:02:14;8.29;87.55
70246;SHT30;57637;49.272;8.590;2024-02-04T09:04:39;8.31;87.42
70246;SHT30;57637;49.272;8.590;2024-02-04T09:07:06;8.38;87.24
70246;SHT30;57637;49.272;8.590;2024-02-04T09:09:32;8.44;87.09
70246;SHT30;57637;49.272;8.590;2024-02-04T09:11:57;8.49;86.89
70246;SHT30;57637;49.272;8.590;2024-02-04T09:14:22;8.52;86.93
70246;SHT30;57637;49.272;8.590;2024-02-04T09:16:48;8.50;86.84
70246;SHT30;57637;49.272;8.590;2024-02-04T09:19:13;8.52;86.99
70246;SHT30;57637;49.272;8.590;2024-02-04T09:21:39;8.53;87.01
70246;SHT30;57637;49.272;8.590;2024-02-04T09:24:04;8.44;86.95
70246;SHT30;57637;49.272;8.590;2024-02-04T09:26:30;8.41;87.25
70246;SHT30;57637;49.272;8.590;2024-02-04T09:28:55;8.44;87.31
70246;SHT30;57637;49.272;8.590;2024-02-04T09:31:20;8.46;87.35
70246;SHT30;57637;49.272;8.590;2024-02-04T09:33:46;8.49;87.29
70246;SHT30;57637;49.272;8.590;2024-02-04T09:36:11;8.52;87.33
70246;SHT30;57637;49.272;8.590;2024-02-04T09:38:37;8.50;87.35
70246;SHT30;57637;49.272;8.590;2024-02-04T09:41:02;8.55;87.30
70246;SHT30;57637;49.272;8.590;2024-02-04T09:43:33;8.56;87.34
70246;SHT30;57637;49.272;8.590;2024-02-04T09:46:01;8.60;87.32
70246;SHT30;57637;49.272;8.590;2024-02-04T09:48:26;8.63;87.13
70246;SHT30;57637;49.272;8.590;2024-02-04T09:50:56;8.70;87.26
70246;SHT30;57637;49.272;8.590;2024-02-04T09:53:25;8.81;87.09
70246;SHT30;57637;49.272;8.590;2024-02-04T09:56:03;8.90;87.14
70246;SHT30;57637;49.272;8.590;2024-02-04T09:58:31;8.99;86.74
70246;SHT30;57637;49.272;8.590;2024-02-04T10:00:56;8.97;86.82
70246;SHT30;57637;49.272;8.590;2024-02-04T10:03:22;8.99;86.81
70246;SHT30;57637;49.272;8.590;2024-02-04T10:05:48;9.04;86.75
70246;SHT30;57637;49.272;8.590;2024-02-04T10:08:14;9.17;86.49
70246;SHT30;57637;49.272;8.590;2024-02-04T10:10:39;9.24;86.20
70246;SHT30;57637;49.272;8.590;2024-02-04T10:13:07;9.35;85.73
70246;SHT30;57637;49.272;8.590;2024-02-04T10:15:33;9.38;85.68
70246;SHT30;57637;49.272;8.590;2024-02-04T10:17:58;9.42;85.28
70246;SHT30;57637;49.272;8.590;2024-02-04T10:20:24;9.61;85.32
70246;SHT30;57637;49.272;8.590;2024-02-04T10:22:49;9.67;84.82
70246;SHT30;57637;49.272;8.590;2024-02-04T10:25:14;9.65;84.68
70246;SHT30;57637;49.272;8.590;2024-02-04T10:27:41;9.85;84.29
70246;SHT30;57637;49.272;8.590;2024-02-04T10:30:07;10.06;83.80
70246;SHT30;57637;49.272;8.590;2024-02-04T10:32:33;10.22;83.18
70246;SHT30;57637;49.272;8.590;2024-02-04T10:34:59;10.23;83.24
70246;SHT30;57637;49.272;8.590;2024-02-04T10:37:25;10.39;83.02
70246;SHT30;57637;49.272;8.590;2024-02-04T10:39:51;10.39;82.26
70246;SHT30;57637;49.272;8.590;2024-02-04T10:42:16;10.34;82.27
70246;SHT30;57637;49.272;8.590;2024-02-04T10:44:45;10.40;82.25
70246;SHT30;57637;49.272;8.590;2024-02-04T10:47:15;10.47;82.35
70246;SHT30;57637;49.272;8.590;2024-02-04T10:49:50;10.43;82.10
70246;SHT30;57637;49.272;8.590;2024-02-04T10:52:18;10.40;82.54
70246;SHT30;57637;49.272;8.590;2024-02-04T10:54:45;10.42;82.80
70246;SHT30;57637;49.272;8.590;2024-02-04T10:57:14;10.43;82.83
70246;SHT30;57637;49.272;8.590;2024-02-04T10:59:45;10.44;82.98
70246;SHT30;57637;49.272;8.590;2024-02-04T11:02:12;10.39;83.01
70246;SHT30;57637;49.272;8.590;2024-02-04T11:04:39;10.43;82.95
70246;SHT30;57637;49.272;8.590;2024-02-04T11:07:07;10.36;82.93
70246;SHT30;57637;49.272;8.590;2024-02-04T11:09:35;10.54;82.53
70246;SHT30;57637;49.272;8.590;2024-02-04T11:12:01;10.59;82.09
70246;SHT30;57637;49.272;8.590;2024-02-04T11:14:32;10.60;82.11
70246;SHT30;57637;49.272;8.590;2024-02-04T11:28:08;10.88;81.40
70246;SHT30;57637;49.272;8.590;2024-02-04T11:30:34;10.91;81.47
70246;SHT30;57637;49.272;8.590;2024-02-04T11:33:01;10.87;81.77
70246;SHT30;57637;49.272;8.590;2024-02-04T11:35:27;10.78;81.69
70246;SHT30;57637;49.272;8.590;2024-02-04T11:37:53;10.93;81.50
70246;SHT30;57637;49.272;8.590;2024-02-04T11:40:20;10.87;81.58
70246;SHT30;57637;49.272;8.590;2024-02-04T11:42:48;10.94;81.56
70246;SHT30;57637;49.272;8.590;2024-02-04T11:45:13;10.94;81.68
70246;SHT30;57637;49.272;8.590;2024-02-04T11:47:39;10.85;81.64
70246;SHT30;57637;49.272;8.590;2024-02-04T11:50:05;10.91;82.09
70246;SHT30;57637;49.272;8.590;2024-02-04T11:52:32;10.90;81.64
70246;SHT30;57637;49.272;8.590;2024-02-04T11:54:57;10.94;81.34
70246;SHT30;57637;49.272;8.590;2024-02-04T11:57:23;10.97;81.29
70246;SHT30;57637;49.272;8.590;2024-02-04T11:59:49;10.97;81.64
70246;SHT30;57637;49.272;8.590;2024-02-04T12:02:22;10.94;81.08
70246;SHT30;57637;49.272;8.590;2024-02-04T12:04:48;11.10;81.15
70246;SHT30;57637;49.272;8.590;2024-02-04T12:07:13;11.24;81.15
70246;SHT30;57637;49.272;8.590;2024-02-04T12:09:39;11.18;80.84
70246;SHT30;57637;49.272;8.590;2024-02-04T12:12:05;11.28;80.85
70246;SHT30;57637;49.272;8.590;2024-02-04T12:14:31;11.21;80.52
70246;SHT30;57637;49.272;8.590;2024-02-04T12:16:57;11.16;80.72
70246;SHT30;57637;49.272;8.590;2024-02-04T12:19:22;11.15;80.45
70246;SHT30;57637;49.272;8.590;2024-02-04T12:21:48;11.18;80.54
70246;SHT30;57637;49.272;8.590;2024-02-04T12:24:14;11.16;80.61
70246;SHT30;57637;49.272;8.590;2024-02-04T12:26:39;11.25;80.34
70246;SHT30;57637;49.272;8.590;2024-02-04T12:29:05;11.03;80.63
70246;SHT30;57637;49.272;8.590;2024-02-04T12:31:34;11.01;80.96
70246;SHT30;57637;49.272;8.590;2024-02-04T12:34:00;10.90;81.75
70246;SHT30;57637;49.272;8.590;2024-02-04T12:36:26;10.88;81.34
70246;SHT30;57637;49.272;8.590;2024-02-04T12:38:53;10.91;81.35
70246;SHT30;57637;49.272;8.590;2024-02-04T12:41:19;10.97;81.34
70246;SHT30;57637;49.272;8.590;2024-02-04T12:43:52;11.00;81.57
70246;SHT30;57637;49.272;8.590;2024-02-04T12:46:22;11.01;81.54
70246;SHT30;57637;49.272;8.590;2024-02-04T12:48:51;11.01;81.30
70246;SHT30;57637;49.272;8.590;2024-02-04T12:51:28;10.90;81.24
70246;SHT30;57637;49.272;8.590;2024-02-04T12:54:11;10.87;81.47
70246;SHT30;57637;49.272;8.590;2024-02-04T12:56:47;10.83;81.92
70246;SHT30;57637;49.272;8.590;2024-02-04T12:59:27;10.73;82.45
70246;SHT30;57637;49.272;8.590;2024-02-04T13:01:54;10.73;82.41
70246;SHT30;57637;49.272;8.590;2024-02-04T13:04:20;10.70;82.46
70246;SHT30;57637;49.272;8.590;2024-02-04T13:06:46;10.77;82.50
70246;SHT30;57637;49.272;8.590;2024-02-04T13:09:11;10.71;82.33
70246;SHT30;57637;49.272;8.590;2024-02-04T13:11:40;10.67;82.48
70246;SHT30;57637;49.272;8.590;2024-02-04T13:14:06;10.64;82.51
70246;SHT30;57637;49.272;8.590;2024-02-04T13:16:31;10.70;82.80
70246;SHT30;57637;49.272;8.590;2024-02-04T13:18:56;10.64;82.83
70246;SHT30;57637;49.272;8.590;2024-02-04T13:21:22;10.61;82.74
70246;SHT30;57637;49.272;8.590;2024-02-04T13:23:48;10.57;82.92
70246;SHT30;57637;49.272;8.590;2024-02-04T13:26:15;10.57;83.16
70246;SHT30;57637;49.272;8.590;2024-02-04T13:28:41;10.54;83.33
70246;SHT30;57637;49.272;8.590;2024-02-04T13:31:07;10.49;83.44
70246;SHT30;57637;49.272;8.590;2024-02-04T13:33:33;10.47;83.86
70246;SHT30;57637;49.272;8.590;2024-02-04T13:35:58;10.36;83.93
70246;SHT30;57637;49.272;8.590;2024-02-04T13:38:23;10.37;84.23
70246;SHT30;57637;49.272;8.590;2024-02-04T13:40:49;10.34;84.10
70246;SHT30;57637;49.272;8.590;2024-02-04T13:43:14;10.36;84.18
70246;SHT30;57637;49.272;8.590;2024-02-04T13:45:39;10.43;84.31
70246;SHT30;57637;49.272;8.590;2024-02-04T13:48:05;10.47;84.13
70246;SHT30;57637;49.272;8.590;2024-02-04T13:50:30;10.42;84.19
70246;SHT30;57637;49.272;8.590;2024-02-04T13:52:55;10.36;84.11
70246;SHT30;57637;49.272;8.590;2024-02-04T13:55:22;10.37;84.42
70246;SHT30;57637;49.272;8.590;2024-02-04T13:57:47;10.36;84.52
70246;SHT30;57637;49.272;8.590;2024-02-04T14:00:13;10.29;84.62
70246;SHT30;57637;49.272;8.590;2024-02-04T14:02:38;10.17;85.10
70246;SHT30;57637;49.272;8.590;2024-02-04T14:05:04;10.16;85.34
70246;SHT30;57637;49.272;8.590;2024-02-04T14:07:29;10.12;85.41
70246;SHT30;57637;49.272;8.590;2024-02-04T14:09:54;10.08;85.59
70246;SHT30;57637;49.272;8.590;2024-02-04T14:12:20;10.05;85.90
70246;SHT30;57637;49.272;8.590;2024-02-04T14:14:45;10.03;86.02
70246;SHT30;57637;49.272;8.590;2024-02-04T14:17:11;10.02;86.14
70246;SHT30;57637;49.272;8.590;2024-02-04T14:19:36;10.01;86.29
70246;SHT30;57637;49.272;8.590;2024-02-04T14:22:01;9.98;86.39
70246;SHT30;57637;49.272;8.590;2024-02-04T14:24:27;9.93;86.41
70246;SHT30;57637;49.272;8.590;2024-02-04T14:26:58;9.95;86.62
70246;SHT30;57637;49.272;8.590;2024-02-04T14:29:24;9.85;86.77
70246;SHT30;57637;49.272;8.590;2024-02-04T14:31:53;9.85;86.97
70246;SHT30;57637;49.272;8.590;2024-02-04T14:34:18;9.85;86.97
70246;SHT30;57637;49.272;8.590;2024-02-04T14:36:44;9.86;87.04
70246;SHT30;57637;49.272;8.590;2024-02-04T14:39:09;9.81;87.14
70246;SHT30;57637;49.272;8.590;2024-02-04T14:41:35;9.79;87.24
70246;SHT30;57637;49.272;8.590;2024-02-04T14:44:01;9.75;87.36
70246;SHT30;57637;49.272;8.590;2024-02-04T14:46:26;9.71;87.48
70246;SHT30;57637;49.272;8.590;2024-02-04T14:48:52;9.71;87.75
70246;SHT30;57637;49.272;8.590;2024-02-04T14:51:17;9.68;87.77
70246;SHT30;57637;49.272;8.590;2024-02-04T14:53:42;9.67;87.77
70246;SHT30;57637;49.272;8.590;2024-02-04T14:56:08;9.63;88.11
70246;SHT30;57637;49.272;8.590;2024-02-04T14:58:33;9.63;87.99
70246;SHT30;57637;49.272;8.590;2024-02-04T15:01:01;9.61;88.07
70246;SHT30;57637;49.272;8.590;2024-02-04T15:03:27;9.59;88.18
70246;SHT30;57637;49.272;8.590;2024-02-04T15:05:52;9.59;88.13
70246;SHT30;57637;49.272;8.590;2024-02-04T15:08:18;9.55;88.15
70246;SHT30;57637;49.272;8.590;2024-02-04T15:10:43;9.51;88.46
70246;SHT30;57637;49.272;8.590;2024-02-04T15:13:09;9.52;88.38
70246;SHT30;57637;49.272;8.590;2024-02-04T15:15:35;9.48;88.36
70246;SHT30;57637;49.272;8.590;2024-02-04T15:18:00;9.47;88.51
70246;SHT30;57637;49.272;8.590;2024-02-04T15:20:26;9.45;88.45
70246;SHT30;57637;49.272;8.590;2024-02-04T15:22:52;9.44;88.40
70246;SHT30;57637;49.272;8.590;2024-02-04T15:25:17;9.42;88.51
70246;SHT30;57637;49.272;8.590;2024-02-04T15:27:45;9.42;88.58
70246;SHT30;57637;49.272;8.590;2024-02-04T15:30:12;9.44;88.58
70246;SHT30;57637;49.272;8.590;2024-02-04T15:32:38;9.44;88.47
70246;SHT30;57637;49.272;8.590;2024-02-04T15:35:04;9.41;88.49
70246;SHT30;57637;49.272;8.590;2024-02-04T15:37:30;9.42;88.46
70246;SHT30;57637;49.272;8.590;2024-02-04T15:39:55;9.42;88.58
70246;SHT30;57637;49.272;8.590;2024-02-04T15:42:22;9.41;88.55
70246;SHT30;57637;49.272;8.590;2024-02-04T15:44:48;9.42;88.49
70246;SHT30;57637;49.272;8.590;2024-02-04T15:47:13;9.41;88.54
70246;SHT30;57637;49.272;8.590;2024-02-04T15:49:40;9.40;88.54